createdAt,value
2023-02-23T00:04:00.816Z,13.65
2023-02-23T00:08:28.226Z,9.45
2023-02-23T00:12:53.169Z,11.37
2023-02-23T00:17:18.449Z,6.88
2023-02-23T00:21:43.494Z,7.43
2023-02-23T00:26:07.433Z,12.13
2023-02-23T00:30:31.874Z,6.68
2023-02-23T00:34:58.439Z,8.25
2023-02-23T00:39:26.730Z,11.00
2023-02-23T00:43:54.798Z,7.53
2023-02-23T00:48:18.967Z,9.75
2023-02-23T00:52:45.338Z,8.88
2023-02-23T00:57:09.468Z,10.40
2023-02-23T01:01:33.820Z,8.38
2023-02-23T01:06:01.009Z,10.43
2023-02-23T01:10:26.823Z,8.47
2023-02-23T01:14:51.333Z,11.05
2023-02-23T01:19:15.864Z,10.15
2023-02-23T01:23:39.859Z,8.45
2023-02-23T01:28:05.447Z,8.60
2023-02-23T01:32:29.418Z,10.65
2023-02-23T01:36:53.431Z,13.27
2023-02-23T01:41:18.875Z,14.73
2023-02-23T01:45:46.356Z,12.73
2023-02-23T01:50:11.961Z,13.32
2023-02-23T01:54:39.836Z,14.20
2023-02-23T01:59:08.457Z,14.90
2023-02-23T02:03:39.432Z,14.18
2023-02-23T02:08:06.398Z,14.75
2023-02-23T02:12:30.554Z,13.63
2023-02-23T02:17:15.986Z,15.13
2023-02-23T02:22:08.741Z,14.57
2023-02-23T02:26:44.117Z,14.13
2023-02-23T02:31:46.794Z,17.73
2023-02-23T02:36:54.405Z,15.70
2023-02-23T02:41:25.618Z,14.77
2023-02-23T02:45:54.006Z,15.07
2023-02-23T02:50:24.774Z,14.82
2023-02-23T02:54:53.901Z,14.40
2023-02-23T02:59:38.846Z,13.93
2023-02-23T03:04:37.063Z,14.93
2023-02-23T03:09:11.512Z,14.18
2023-02-23T03:14:05.770Z,13.70
2023-02-23T03:19:04.362Z,13.90
2023-02-23T03:23:59.448Z,14.02
2023-02-23T03:28:48.920Z,13.33
2023-02-23T03:33:35.701Z,13.82
2023-02-23T03:38:24.214Z,14.13
2023-02-23T03:43:09.058Z,13.75
2023-02-23T03:47:55.718Z,13.33
2023-02-23T03:52:42.434Z,13.40
2023-02-23T03:57:26.822Z,13.30
2023-02-23T04:02:11.403Z,12.13
2023-02-23T04:06:58.322Z,13.38
2023-02-23T04:11:46.705Z,12.52
2023-02-23T04:16:30.546Z,12.57
2023-02-23T04:21:15.239Z,11.30
2023-02-23T04:25:59.629Z,12.50
2023-02-23T04:30:45.494Z,11.55
2023-02-23T04:35:31.565Z,12.20
2023-02-23T04:40:16.033Z,11.82
2023-02-23T04:45:00.377Z,11.25
2023-02-23T04:49:46.005Z,12.50
2023-02-23T04:54:30.135Z,11.82
2023-02-23T04:59:14.502Z,11.48
2023-02-23T05:03:58.516Z,13.53
2023-02-23T05:08:44.133Z,10.70
2023-02-23T05:13:28.354Z,12.70
2023-02-23T05:18:12.770Z,12.73
2023-02-23T05:22:57.205Z,10.93
2023-02-23T05:27:42.746Z,12.07
2023-02-23T05:32:27.095Z,11.63
2023-02-23T05:37:11.252Z,11.83
2023-02-23T05:41:55.631Z,12.50
2023-02-23T05:46:41.299Z,13.00
2023-02-23T05:51:25.816Z,13.60
2023-02-23T05:56:18.289Z,13.27
2023-02-23T06:01:02.505Z,13.00
2023-02-23T06:05:52.894Z,12.15
2023-02-23T06:10:37.088Z,12.40
2023-02-23T06:15:21.097Z,12.68
2023-02-23T06:20:07.325Z,12.52
2023-02-23T06:24:53.133Z,12.47
2023-02-23T06:29:37.553Z,13.48
2023-02-23T06:34:21.847Z,11.65
2023-02-23T06:39:06.629Z,12.47
2023-02-23T06:43:53.242Z,12.65
2023-02-23T06:48:37.939Z,12.50
2023-02-23T06:53:23.304Z,11.60
2023-02-23T06:58:08.011Z,11.70
2023-02-23T07:02:53.971Z,11.98
2023-02-23T07:07:38.458Z,11.48
2023-02-23T07:12:23.099Z,12.57
2023-02-23T07:17:07.741Z,11.73
2023-02-23T07:21:53.732Z,11.52
2023-02-23T07:26:38.000Z,11.13
2023-02-23T07:31:22.567Z,11.27
2023-02-23T07:36:07.847Z,11.57
2023-02-23T07:40:53.675Z,11.40
2023-02-23T07:45:38.567Z,11.60
2023-02-23T07:50:22.989Z,12.20
2023-02-23T07:55:09.221Z,11.52
2023-02-23T07:59:55.189Z,12.00
2023-02-23T08:04:40.708Z,11.95
2023-02-23T08:09:25.422Z,11.43
2023-02-23T08:14:10.674Z,12.23
2023-02-23T08:18:59.392Z,12.73
2023-02-23T08:23:43.726Z,12.30
2023-02-23T08:28:28.515Z,12.18
2023-02-23T08:33:12.762Z,12.00
2023-02-23T08:37:59.119Z,12.30
2023-02-23T08:42:43.552Z,13.10
2023-02-23T08:47:30.465Z,12.80
2023-02-23T08:52:14.739Z,12.65
2023-02-23T08:57:00.407Z,13.15
2023-02-23T09:01:44.743Z,13.27
2023-02-23T09:06:29.525Z,13.98
2023-02-23T09:11:13.701Z,13.57
2023-02-23T09:15:59.524Z,14.32
2023-02-23T09:20:44.521Z,13.77
2023-02-23T09:25:31.567Z,14.60
2023-02-23T09:30:17.964Z,13.65
2023-02-23T09:35:03.728Z,14.33
2023-02-23T09:39:48.841Z,14.93
2023-02-23T09:44:51.812Z,14.18
2023-02-23T09:49:40.064Z,14.20
2023-02-23T09:54:29.603Z,14.50
2023-02-23T09:59:16.684Z,14.90
2023-02-23T10:04:08.784Z,15.02
2023-02-23T10:09:03.601Z,14.50
2023-02-23T10:13:57.624Z,15.90
2023-02-23T10:18:51.304Z,16.02
2023-02-23T10:23:40.776Z,16.07
2023-02-23T10:28:25.308Z,15.45
2023-02-23T10:33:17.878Z,17.52
2023-02-23T10:38:03.736Z,17.00
2023-02-23T10:42:48.036Z,17.13
2023-02-23T10:47:35.855Z,17.88
2023-02-23T10:52:27.543Z,17.98
2023-02-23T10:57:16.963Z,17.83
2023-02-23T11:02:15.912Z,18.80
2023-02-23T11:07:09.604Z,20.23
2023-02-23T11:12:01.087Z,18.90
2023-02-23T11:16:45.409Z,19.50
2023-02-23T11:21:33.583Z,20.33
2023-02-23T11:26:28.547Z,21.10
2023-02-23T11:31:18.797Z,20.60
2023-02-23T11:36:18.137Z,20.73
2023-02-23T11:41:04.070Z,19.02
2023-02-23T11:45:51.388Z,18.73
2023-02-23T11:50:38.589Z,20.00
2023-02-23T11:55:22.917Z,19.52
2023-02-23T12:00:12.945Z,19.83
2023-02-23T12:05:07.589Z,19.02
2023-02-23T12:10:01.040Z,19.50
2023-02-23T12:14:51.345Z,20.27
2023-02-23T12:19:41.896Z,19.60
2023-02-23T12:24:33.271Z,20.95
2023-02-23T12:29:24.454Z,19.75
2023-02-23T12:34:15.974Z,21.27
2023-02-23T12:39:08.157Z,22.17
2023-02-23T12:43:56.755Z,21.90
2023-02-23T12:48:51.363Z,22.73
2023-02-23T12:53:40.597Z,22.92
2023-02-23T12:58:29.390Z,22.33
2023-02-23T13:03:56.538Z,22.57
2023-02-23T13:09:06.032Z,23.05
2023-02-23T13:13:57.722Z,23.83
2023-02-23T13:18:47.618Z,22.85
2023-02-23T13:23:40.037Z,22.80
2023-02-23T13:28:36.554Z,22.20
2023-02-23T13:33:41.963Z,22.48
2023-02-23T13:38:39.328Z,22.97
2023-02-23T13:43:30.182Z,24.45
2023-02-23T13:48:24.558Z,24.38
2023-02-23T13:53:28.567Z,23.83
2023-02-23T13:58:17.765Z,22.70
2023-02-23T14:03:07.128Z,23.77
2023-02-23T14:07:55.908Z,23.63
2023-02-23T14:12:43.588Z,23.83
2023-02-23T14:17:46.301Z,24.42
2023-02-23T14:22:31.284Z,24.30
2023-02-23T14:27:41.432Z,25.03
2023-02-23T14:32:32.485Z,24.50
2023-02-23T14:37:22.126Z,24.20
2023-02-23T14:42:09.283Z,25.70
2023-02-23T14:47:07.700Z,25.23
2023-02-23T14:51:54.706Z,26.77
2023-02-23T14:56:48.008Z,25.27
2023-02-23T15:01:43.025Z,26.07
2023-02-23T15:06:27.611Z,26.73
2023-02-23T15:11:15.445Z,26.08
2023-02-23T15:16:08.272Z,26.40
2023-02-23T15:20:52.610Z,26.10
2023-02-23T15:25:40.159Z,27.00
2023-02-23T15:30:30.835Z,27.20
2023-02-23T15:35:16.653Z,25.75
2023-02-23T15:40:04.360Z,27.70
2023-02-23T15:45:00.810Z,27.17
2023-02-23T15:49:45.293Z,26.93
2023-02-23T15:54:41.167Z,27.60
2023-02-23T15:59:34.587Z,26.77
2023-02-23T16:04:24.630Z,26.67
2023-02-23T16:09:28.599Z,28.50
2023-02-23T16:14:20.158Z,29.38
2023-02-23T16:19:06.951Z,31.53
2023-02-23T16:23:55.683Z,32.03
2023-02-23T16:28:47.514Z,32.17
2023-02-23T16:33:44.285Z,32.75
2023-02-23T16:38:34.811Z,33.57
2023-02-23T16:43:13.919Z,33.63
2023-02-23T16:47:53.185Z,33.97
2023-02-23T16:52:38.897Z,33.37
2023-02-23T16:57:24.455Z,32.70
2023-02-23T17:02:14.488Z,32.45
2023-02-23T17:07:03.046Z,35.43
2023-02-23T17:11:57.917Z,32.97
2023-02-23T17:16:42.127Z,33.13
2023-02-23T17:21:39.688Z,33.03
2023-02-23T17:26:33.560Z,33.53
2023-02-23T17:31:25.785Z,32.60
2023-02-23T17:36:17.121Z,33.53
2023-02-23T17:41:08.884Z,34.03
2023-02-23T17:45:57.451Z,33.63
2023-02-23T17:50:47.047Z,34.45
2023-02-23T17:55:34.549Z,34.53
2023-02-23T18:00:23.170Z,34.15
2023-02-23T18:05:11.497Z,36.13
2023-02-23T18:09:58.651Z,33.75
2023-02-23T18:14:45.428Z,35.03
2023-02-23T18:19:32.657Z,34.25
2023-02-23T18:24:17.203Z,34.22
2023-02-23T18:29:13.134Z,36.03
2023-02-23T18:34:03.251Z,35.72
2023-02-23T18:38:54.641Z,38.65
2023-02-23T18:43:44.702Z,36.20
2023-02-23T18:48:43.768Z,35.67
2023-02-23T18:53:28.589Z,36.95
2023-02-23T18:58:23.516Z,35.15
2023-02-23T19:03:14.364Z,34.90
2023-02-23T19:08:08.949Z,35.83
2023-02-23T19:12:53.535Z,33.20
2023-02-23T19:17:38.333Z,30.57
2023-02-23T19:22:23.104Z,29.33
2023-02-23T19:27:10.247Z,28.90
2023-02-23T19:31:51.113Z,25.33
2023-02-23T19:36:31.829Z,24.40
2023-02-23T19:41:19.354Z,26.05
2023-02-23T19:46:07.496Z,23.83
2023-02-23T19:50:52.356Z,23.53
2023-02-23T19:55:37.359Z,23.27
2023-02-23T20:00:22.162Z,22.80
2023-02-23T20:05:08.640Z,22.63
2023-02-23T20:09:53.460Z,22.80
2023-02-23T20:14:40.617Z,21.80
2023-02-23T20:19:25.601Z,23.40
2023-02-23T20:24:12.829Z,21.73
2023-02-23T20:29:00.729Z,20.35
2023-02-23T20:33:45.831Z,21.47
2023-02-23T20:38:35.657Z,20.95
2023-02-23T20:43:21.590Z,20.00
2023-02-23T20:48:09.914Z,20.17
2023-02-23T20:52:54.392Z,21.10
2023-02-23T20:57:39.816Z,21.45
2023-02-23T21:02:26.036Z,20.05
2023-02-23T21:07:10.381Z,21.60
2023-02-23T21:11:55.192Z,20.00
2023-02-23T21:16:45.258Z,21.52
2023-02-23T21:21:31.204Z,20.67
2023-02-23T21:26:17.107Z,21.35
2023-02-23T21:31:01.976Z,20.38
2023-02-23T21:35:46.823Z,19.20
2023-02-23T21:40:33.167Z,20.43
2023-02-23T21:45:18.377Z,21.13
2023-02-23T21:50:02.895Z,20.48
2023-02-23T21:54:50.331Z,21.90
2023-02-23T21:59:38.052Z,20.55
2023-02-23T22:04:22.589Z,20.25
2023-02-23T22:09:11.006Z,19.63
2023-02-23T22:13:59.280Z,20.02
2023-02-23T22:18:45.492Z,19.70
2023-02-23T22:23:31.559Z,18.20
2023-02-23T22:28:19.013Z,18.57
2023-02-23T22:33:07.316Z,18.13
2023-02-23T22:37:56.406Z,18.08
2023-02-23T22:42:45.848Z,17.67
2023-02-23T22:47:31.079Z,16.63
2023-02-23T22:52:16.388Z,15.95
2023-02-23T22:57:05.260Z,17.83
2023-02-23T23:01:56.780Z,17.02
2023-02-23T23:06:44.409Z,15.95
2023-02-23T23:11:30.467Z,16.58
2023-02-23T23:16:31.160Z,15.80
2023-02-23T23:21:22.318Z,16.83
2023-02-23T23:26:07.740Z,15.63
2023-02-23T23:30:52.591Z,16.50
2023-02-23T23:35:38.570Z,14.95
2023-02-23T23:40:24.883Z,16.23
2023-02-23T23:45:11.443Z,15.07
2023-02-23T23:49:56.306Z,14.45
2023-02-23T23:54:42.992Z,13.88
2023-02-23T23:59:28.022Z,14.85
